createdAt,value
2024-01-20T00:01:20.307Z,-7.06
2024-01-20T00:04:22.281Z,-7.07
2024-01-20T00:07:24.271Z,-7.15
2024-01-20T00:10:25.991Z,-7.21
2024-01-20T00:13:27.669Z,-7.23
2024-01-20T00:16:29.397Z,-7.29
2024-01-20T00:19:31.283Z,-7.31
2024-01-20T00:22:33.248Z,-7.32
2024-01-20T00:25:35.250Z,-7.36
2024-01-20T00:28:37.335Z,-7.53
2024-01-20T00:31:39.307Z,-7.55
2024-01-20T00:34:51.571Z,-7.59
2024-01-20T00:38:02.136Z,-7.66
2024-01-20T00:41:04.056Z,-7.71
2024-01-20T00:44:06.055Z,-7.73
2024-01-20T00:47:08.093Z,-7.72
2024-01-20T00:50:10.270Z,-7.74
2024-01-20T00:53:11.989Z,-7.68
2024-01-20T00:56:13.771Z,-7.73
2024-01-20T00:59:15.573Z,-7.73
2024-01-20T01:02:19.867Z,-7.72
2024-01-20T01:05:21.773Z,-7.76
2024-01-20T01:08:23.442Z,-7.74
2024-01-20T01:11:25.193Z,-7.84
2024-01-20T01:14:26.943Z,-7.93
2024-01-20T01:17:28.826Z,-7.92
2024-01-20T01:20:30.558Z,-8.01
2024-01-20T01:23:32.527Z,-8.03
2024-01-20T01:26:34.382Z,-8.00
2024-01-20T01:29:36.312Z,-8.01
2024-01-20T01:32:38.457Z,-7.89
2024-01-20T01:35:40.202Z,-7.87
2024-01-20T01:38:41.868Z,-7.93
2024-01-20T01:41:45.167Z,-7.98
2024-01-20T01:44:46.870Z,-8.01
2024-01-20T01:47:49.412Z,-8.03
2024-01-20T01:50:54.733Z,-8.04
2024-01-20T01:53:58.867Z,-7.98
2024-01-20T01:57:01.561Z,-7.94
2024-01-20T02:00:05.487Z,-8.02
2024-01-20T02:03:09.294Z,-8.12
2024-01-20T02:06:11.273Z,-8.18
2024-01-20T02:09:14.330Z,-8.09
2024-01-20T02:12:16.613Z,-8.00
2024-01-20T02:15:19.082Z,-8.06
2024-01-20T02:18:23.927Z,-8.10
2024-01-20T02:21:25.809Z,-8.21
2024-01-20T02:24:27.622Z,-8.41
2024-01-20T02:27:29.434Z,-8.58
2024-01-20T02:30:31.280Z,-8.60
2024-01-20T02:33:33.140Z,-8.64
2024-01-20T02:36:34.949Z,-8.68
2024-01-20T02:39:36.669Z,-8.77
2024-01-20T02:42:38.433Z,-8.62
2024-01-20T02:45:40.150Z,-8.41
2024-01-20T02:48:42.293Z,-8.26
2024-01-20T02:51:44.015Z,-8.13
2024-01-20T02:54:45.720Z,-8.16
2024-01-20T02:57:47.503Z,-8.23
2024-01-20T03:00:49.211Z,-8.33
2024-01-20T03:03:50.956Z,-8.50
2024-01-20T03:06:52.675Z,-8.55
2024-01-20T03:09:54.441Z,-8.47
2024-01-20T03:12:56.999Z,-8.57
2024-01-20T03:15:58.804Z,-8.61
2024-01-20T03:19:00.643Z,-8.63
2024-01-20T03:22:02.443Z,-8.71
2024-01-20T03:25:04.309Z,-8.67
2024-01-20T03:28:06.171Z,-8.65
2024-01-20T03:31:07.890Z,-8.56
2024-01-20T03:34:10.538Z,-8.49
2024-01-20T03:37:12.352Z,-8.67
2024-01-20T03:40:14.228Z,-8.81
2024-01-20T03:43:15.909Z,-8.82
2024-01-20T03:46:19.476Z,-8.78
2024-01-20T03:49:21.525Z,-8.88
2024-01-20T03:52:23.389Z,-8.95
2024-01-20T03:55:25.077Z,-9.03
2024-01-20T03:58:26.857Z,-9.08
2024-01-20T04:01:28.615Z,-9.14
2024-01-20T04:04:30.393Z,-9.13
2024-01-20T04:07:32.169Z,-9.18
2024-01-20T04:10:33.901Z,-9.07
2024-01-20T04:13:35.618Z,-9.06
2024-01-20T04:16:37.767Z,-9.02
2024-01-20T04:19:39.684Z,-8.90
2024-01-20T04:22:41.420Z,-8.82
2024-01-20T04:25:43.198Z,-8.81
2024-01-20T04:28:45.411Z,-8.75
2024-01-20T04:31:47.187Z,-8.83
2024-01-20T04:34:48.935Z,-8.85
2024-01-20T04:37:50.642Z,-8.91
2024-01-20T04:40:52.456Z,-8.84
2024-01-20T04:43:54.128Z,-8.82
2024-01-20T04:46:55.817Z,-8.94
2024-01-20T04:49:57.532Z,-9.02
2024-01-20T04:52:59.238Z,-9.13
2024-01-20T04:56:04.661Z,-9.13
2024-01-20T04:59:06.328Z,-9.07
2024-01-20T05:02:08.070Z,-9.14
2024-01-20T05:05:10.130Z,-9.18
2024-01-20T05:08:11.863Z,-9.19
2024-01-20T05:11:13.720Z,-9.17
2024-01-20T05:14:15.513Z,-9.17
2024-01-20T05:17:17.213Z,-9.23
2024-01-20T05:20:18.979Z,-9.17
2024-01-20T05:23:20.724Z,-9.25
2024-01-20T05:26:22.538Z,-9.32
2024-01-20T05:29:24.522Z,-9.34
2024-01-20T05:32:26.676Z,-9.36
2024-01-20T05:35:28.409Z,-9.36
2024-01-20T05:38:30.093Z,-9.43
2024-01-20T05:41:31.836Z,-9.50
2024-01-20T05:44:33.619Z,-9.48
2024-01-20T05:47:35.417Z,-9.56
2024-01-20T05:50:37.176Z,-9.55
2024-01-20T05:53:38.988Z,-9.58
2024-01-20T05:56:40.653Z,-9.49
2024-01-20T05:59:42.354Z,-9.44
2024-01-20T06:02:44.178Z,-9.45
2024-01-20T06:05:45.881Z,-9.48
2024-01-20T06:08:47.586Z,-9.52
2024-01-20T06:11:49.923Z,-9.63
2024-01-20T06:14:51.627Z,-9.57
2024-01-20T06:17:53.417Z,-9.55
2024-01-20T06:20:55.536Z,-9.43
2024-01-20T06:23:57.323Z,-9.42
2024-01-20T06:26:59.064Z,-9.39
2024-01-20T06:30:01.093Z,-9.44
2024-01-20T06:33:04.012Z,-9.44
2024-01-20T06:36:06.309Z,-9.36
2024-01-20T06:39:08.194Z,-9.39
2024-01-20T06:42:11.599Z,-9.30
2024-01-20T06:45:13.408Z,-9.31
2024-01-20T06:48:15.301Z,-9.33
2024-01-20T06:51:17.343Z,-9.41
2024-01-20T06:54:19.237Z,-9.50
2024-01-20T06:57:21.003Z,-9.50
2024-01-20T07:00:22.867Z,-9.54
2024-01-20T07:03:24.740Z,-9.57
2024-01-20T07:06:26.569Z,-9.70
2024-01-20T07:09:28.426Z,-9.77
2024-01-20T07:12:31.020Z,-9.86
2024-01-20T07:15:33.018Z,-9.89
2024-01-20T07:18:34.756Z,-9.91
2024-01-20T07:21:36.544Z,-9.88
2024-01-20T07:24:38.522Z,-9.70
2024-01-20T07:27:40.278Z,-9.62
2024-01-20T07:30:42.039Z,-9.68
2024-01-20T07:33:43.885Z,-9.73
2024-01-20T07:36:46.103Z,-9.51
2024-01-20T07:39:48.216Z,-9.28
2024-01-20T07:42:50.045Z,-8.92
2024-01-20T07:45:55.225Z,-8.65
2024-01-20T07:48:57.056Z,-8.67
2024-01-20T07:51:58.962Z,-8.61
2024-01-20T07:55:00.771Z,-8.62
2024-01-20T07:58:02.577Z,-8.42
2024-01-20T08:01:04.557Z,-8.51
2024-01-20T08:04:06.851Z,-8.23
2024-01-20T08:07:10.107Z,-7.85
2024-01-20T08:10:12.276Z,-7.69
2024-01-20T08:13:13.999Z,-7.48
2024-01-20T08:16:15.713Z,-7.48
2024-01-20T08:19:17.532Z,-7.48
2024-01-20T08:22:20.911Z,-7.40
2024-01-20T08:25:23.047Z,-7.32
2024-01-20T08:28:25.007Z,-7.28
2024-01-20T08:31:26.778Z,-7.60
2024-01-20T08:34:28.535Z,-7.53
2024-01-20T08:37:30.333Z,-7.51
2024-01-20T08:40:32.012Z,-7.53
2024-01-20T08:43:33.714Z,-7.43
2024-01-20T08:46:36.453Z,-7.42
2024-01-20T08:49:38.247Z,-7.40
2024-01-20T08:52:40.873Z,-7.30
2024-01-20T08:55:42.720Z,-7.25
2024-01-20T08:58:44.387Z,-7.15
2024-01-20T09:01:46.396Z,-7.14
2024-01-20T09:04:48.086Z,-7.05
2024-01-20T09:07:49.767Z,-6.90
2024-01-20T09:10:52.249Z,-6.75
2024-01-20T09:13:54.033Z,-6.61
2024-01-20T09:16:55.738Z,-6.31
2024-01-20T09:19:57.603Z,-6.37
2024-01-20T09:22:59.410Z,-6.18
2024-01-20T09:26:01.100Z,-5.80
2024-01-20T09:29:02.848Z,-5.48
2024-01-20T09:32:05.013Z,-5.34
2024-01-20T09:35:07.911Z,-5.14
2024-01-20T09:38:09.957Z,-4.85
2024-01-20T09:41:12.638Z,-4.66
2024-01-20T09:44:16.447Z,-4.69
2024-01-20T09:47:20.754Z,-4.66
2024-01-20T09:50:22.577Z,-4.63
2024-01-20T09:53:25.468Z,-4.46
2024-01-20T09:56:30.447Z,-4.34
2024-01-20T09:59:33.347Z,-4.01
2024-01-20T10:02:36.640Z,-3.92
2024-01-20T10:05:39.125Z,-3.77
2024-01-20T10:08:40.955Z,-3.79
2024-01-20T10:11:42.609Z,-3.75
2024-01-20T10:14:44.425Z,-3.95
2024-01-20T10:17:46.473Z,-3.97
2024-01-20T10:20:49.126Z,-3.98
2024-01-20T10:23:51.049Z,-3.61
2024-01-20T10:26:53.707Z,-3.39
2024-01-20T10:29:55.379Z,-3.23
2024-01-20T10:33:08.606Z,-3.15
2024-01-20T10:36:15.238Z,-2.96
2024-01-20T10:39:21.116Z,-2.71
2024-01-20T10:42:28.484Z,-2.61
2024-01-20T10:45:40.059Z,-2.54
2024-01-20T10:48:47.929Z,-2.39
2024-01-20T10:51:51.020Z,-2.16
2024-01-20T10:54:52.842Z,-2.09
2024-01-20T10:57:55.649Z,-2.06
2024-01-20T11:00:57.521Z,-1.91
2024-01-20T11:03:59.372Z,-1.70
2024-01-20T11:07:01.699Z,-1.59
2024-01-20T11:10:05.082Z,-1.44
2024-01-20T11:13:07.849Z,-1.40
2024-01-20T11:16:19.008Z,-1.20
2024-01-20T11:19:20.758Z,-1.16
2024-01-20T11:22:36.786Z,-1.08
2024-01-20T11:25:38.549Z,-0.87
2024-01-20T11:28:44.378Z,-0.66
2024-01-20T11:31:49.987Z,-0.68
2024-01-20T11:34:51.845Z,-0.53
2024-01-20T11:37:58.647Z,-0.65
2024-01-20T11:41:01.399Z,-0.77
2024-01-20T11:44:03.242Z,-0.85
2024-01-20T11:47:05.267Z,-0.98
2024-01-20T11:50:08.034Z,-1.02
2024-01-20T11:53:10.290Z,-1.21
2024-01-20T11:56:12.057Z,-1.32
2024-01-20T11:59:14.659Z,-1.45
2024-01-20T12:02:17.364Z,-1.69
2024-01-20T12:05:19.863Z,-1.49
2024-01-20T12:08:22.201Z,-1.66
2024-01-20T12:11:24.588Z,-1.76
2024-01-20T12:14:26.369Z,-1.42
2024-01-20T12:17:28.119Z,-1.41
2024-01-20T12:20:30.095Z,-1.15
2024-01-20T12:23:31.759Z,-1.02
2024-01-20T12:26:33.399Z,-0.87
2024-01-20T12:29:35.160Z,-0.50
2024-01-20T12:32:36.884Z,-0.64
2024-01-20T12:35:38.661Z,-0.75
2024-01-20T12:38:40.443Z,-0.92
2024-01-20T12:41:42.308Z,-1.25
2024-01-20T12:44:44.053Z,-1.13
2024-01-20T12:47:45.761Z,-1.17
2024-01-20T12:50:47.486Z,-1.11
2024-01-20T12:53:49.215Z,-1.12
2024-01-20T12:56:50.864Z,-1.02
2024-01-20T12:59:52.536Z,-0.99
2024-01-20T13:02:54.318Z,-0.90
2024-01-20T13:05:56.061Z,-0.63
2024-01-20T13:08:57.740Z,-0.42
2024-01-20T13:11:59.394Z,-0.18
2024-01-20T13:15:01.442Z,0.14
2024-01-20T13:18:03.615Z,0.33
2024-01-20T13:21:05.533Z,0.46
2024-01-20T13:24:07.343Z,0.50
2024-01-20T13:27:09.112Z,0.40
2024-01-20T13:30:11.367Z,0.43
2024-01-20T13:33:13.469Z,0.53
2024-01-20T13:36:15.276Z,0.58
2024-01-20T13:39:17.088Z,0.73
2024-01-20T13:42:18.870Z,0.76
2024-01-20T13:45:20.628Z,0.67
2024-01-20T13:48:22.442Z,0.64
2024-01-20T13:51:25.878Z,0.39
2024-01-20T13:54:27.663Z,0.36
2024-01-20T13:57:29.594Z,0.49
2024-01-20T14:00:31.421Z,0.53
2024-01-20T14:03:33.523Z,0.27
2024-01-20T14:06:35.651Z,0.12
2024-01-20T14:09:37.423Z,0.08
2024-01-20T14:12:39.218Z,0.08
2024-01-20T14:15:41.236Z,0.25
2024-01-20T14:18:43.078Z,0.24
2024-01-20T14:21:44.812Z,0.23
2024-01-20T14:24:46.700Z,0.13
2024-01-20T14:27:48.415Z,0.04
2024-01-20T14:30:50.607Z,-0.04
2024-01-20T14:33:52.523Z,-0.04
2024-01-20T14:36:54.431Z,-0.07
2024-01-20T14:39:56.081Z,-0.09
2024-01-20T14:42:57.729Z,-0.16
2024-01-20T14:45:59.423Z,-0.15
2024-01-20T14:49:08.421Z,-0.21
2024-01-20T14:52:10.547Z,-0.34
2024-01-20T14:55:12.300Z,-0.32
2024-01-20T14:58:14.021Z,-0.31
2024-01-20T15:01:15.744Z,-0.27
2024-01-20T15:04:17.681Z,-0.31
2024-01-20T15:07:19.516Z,-0.32
2024-01-20T15:10:22.453Z,-0.35
2024-01-20T15:13:24.145Z,-0.39
2024-01-20T15:16:25.823Z,-0.42
2024-01-20T15:19:28.284Z,-0.47
2024-01-20T15:22:30.065Z,-0.56
2024-01-20T15:25:31.815Z,-0.57
2024-01-20T15:28:33.726Z,-0.63
2024-01-20T15:31:35.413Z,-0.71
2024-01-20T15:34:37.182Z,-0.81
2024-01-20T15:37:38.906Z,-0.87
2024-01-20T15:40:40.980Z,-0.93
2024-01-20T15:43:42.780Z,-0.97
2024-01-20T15:46:45.503Z,-0.95
2024-01-20T15:49:48.501Z,-1.07
2024-01-20T15:52:50.617Z,-1.18
2024-01-20T15:55:52.368Z,-1.18
2024-01-20T15:58:54.001Z,-1.24
2024-01-20T16:01:55.718Z,-1.28
2024-01-20T16:04:57.421Z,-1.35
2024-01-20T16:07:59.145Z,-1.43
2024-01-20T16:11:00.933Z,-1.58
2024-01-20T16:14:04.246Z,-1.66
2024-01-20T16:17:05.940Z,-1.75
2024-01-20T16:20:11.334Z,-1.83
2024-01-20T16:23:17.777Z,-1.91
2024-01-20T16:26:21.953Z,-2.05
2024-01-20T16:29:23.733Z,-2.15
2024-01-20T16:32:25.603Z,-2.15
2024-01-20T16:35:27.338Z,-2.20
2024-01-20T16:38:29.041Z,-2.24
2024-01-20T16:41:30.752Z,-2.34
2024-01-20T16:44:32.462Z,-2.47
2024-01-20T16:47:34.274Z,-2.50
2024-01-20T16:50:37.005Z,-2.59
2024-01-20T16:53:41.633Z,-2.57
2024-01-20T16:56:43.684Z,-2.57
2024-01-20T16:59:45.479Z,-2.74
2024-01-20T17:02:47.179Z,-2.77
2024-01-20T17:05:51.474Z,-2.83
2024-01-20T17:08:53.128Z,-3.05
2024-01-20T17:11:54.887Z,-3.02
2024-01-20T17:14:56.622Z,-3.04
2024-01-20T17:17:58.331Z,-3.03
2024-01-20T17:21:02.377Z,-2.99
2024-01-20T17:24:04.306Z,-2.95
2024-01-20T17:27:06.178Z,-3.13
2024-01-20T17:30:09.271Z,-3.23
2024-01-20T17:33:11.613Z,-3.19
2024-01-20T17:36:13.530Z,-3.22
2024-01-20T17:39:15.355Z,-3.31
2024-01-20T17:42:17.239Z,-3.31
2024-01-20T17:45:19.015Z,-3.43
2024-01-20T17:48:21.153Z,-3.48
2024-01-20T17:51:22.968Z,-3.67
2024-01-20T17:54:28.432Z,-3.53
2024-01-20T17:57:30.851Z,-3.60
2024-01-20T18:00:32.752Z,-3.60
2024-01-20T18:03:35.284Z,-3.63
2024-01-20T18:06:37.749Z,-3.59
2024-01-20T18:09:39.608Z,-3.71
2024-01-20T18:12:42.698Z,-3.82
2024-01-20T18:15:46.182Z,-3.75
2024-01-20T18:18:48.180Z,-3.78
2024-01-20T18:21:49.993Z,-3.78
2024-01-20T18:24:51.840Z,-3.83
2024-01-20T18:27:53.578Z,-3.94
2024-01-20T18:30:55.367Z,-4.09
2024-01-20T18:33:58.836Z,-4.25
2024-01-20T18:37:01.297Z,-4.17
2024-01-20T18:40:03.336Z,-4.06
2024-01-20T18:43:05.176Z,-4.24
2024-01-20T18:46:07.690Z,-4.14
2024-01-20T18:49:09.443Z,-4.10
2024-01-20T18:52:11.280Z,-4.06
2024-01-20T18:55:12.989Z,-4.29
2024-01-20T18:58:14.860Z,-4.44
2024-01-20T19:01:16.681Z,-4.37
2024-01-20T19:04:19.262Z,-4.38
2024-01-20T19:07:21.548Z,-4.40
2024-01-20T19:10:23.364Z,-4.31
2024-01-20T19:13:25.560Z,-4.31
2024-01-20T19:16:29.076Z,-4.38
2024-01-20T19:19:32.544Z,-4.42
2024-01-20T19:22:34.400Z,-4.52
2024-01-20T19:25:36.196Z,-4.61
2024-01-20T19:28:39.444Z,-4.67
2024-01-20T19:31:41.089Z,-4.65
2024-01-20T19:34:43.071Z,-4.65
2024-01-20T19:37:44.940Z,-4.59
2024-01-20T19:40:46.875Z,-4.72
2024-01-20T19:43:48.663Z,-4.53
2024-01-20T19:46:50.378Z,-4.53
2024-01-20T19:49:54.521Z,-4.50
2024-01-20T19:52:57.860Z,-4.56
2024-01-20T19:55:59.745Z,-4.41
2024-01-20T19:59:01.432Z,-4.44
2024-01-20T20:02:03.364Z,-4.49
2024-01-20T20:05:05.388Z,-4.42
2024-01-20T20:08:07.343Z,-4.44
2024-01-20T20:11:09.051Z,-4.45
2024-01-20T20:14:12.806Z,-4.55
2024-01-20T20:17:14.563Z,-4.53
2024-01-20T20:20:16.292Z,-4.53
2024-01-20T20:23:18.014Z,-4.45
2024-01-20T20:26:19.681Z,-4.44
2024-01-20T20:29:21.485Z,-4.42
2024-01-20T20:32:23.857Z,-4.49
2024-01-20T20:35:26.018Z,-4.48
2024-01-20T20:38:27.767Z,-4.46
2024-01-20T20:41:29.560Z,-4.47
2024-01-20T20:44:31.230Z,-4.46
2024-01-20T20:47:33.666Z,-4.43
2024-01-20T20:50:35.385Z,-4.31
2024-01-20T20:53:37.060Z,-4.29
2024-01-20T20:56:38.745Z,-4.19
2024-01-20T20:59:44.053Z,-4.16
2024-01-20T21:02:46.053Z,-4.12
2024-01-20T21:05:48.129Z,-4.10
2024-01-20T21:08:49.816Z,-4.06
2024-01-20T21:11:51.480Z,-4.04
2024-01-20T21:14:53.339Z,-4.04
2024-01-20T21:17:55.094Z,-4.04
2024-01-20T21:20:56.807Z,-4.04
2024-01-20T21:23:58.569Z,-4.07
2024-01-20T21:27:00.268Z,-4.06
2024-01-20T21:30:02.083Z,-4.11
2024-01-20T21:33:04.676Z,-4.14
2024-01-20T21:36:06.636Z,-4.17
2024-01-20T21:39:10.746Z,-4.23
2024-01-20T21:42:12.811Z,-4.34
2024-01-20T21:45:14.580Z,-4.39
2024-01-20T21:48:17.376Z,-4.38
2024-01-20T21:51:19.286Z,-4.38
2024-01-20T21:54:21.066Z,-4.40
2024-01-20T21:57:22.845Z,-4.44
2024-01-20T22:00:24.967Z,-4.46
2024-01-20T22:03:27.017Z,-4.47
2024-01-20T22:06:28.891Z,-4.49
2024-01-20T22:09:30.654Z,-4.53
2024-01-20T22:12:32.932Z,-4.55
2024-01-20T22:15:34.670Z,-4.51
2024-01-20T22:18:36.453Z,-4.51
2024-01-20T22:21:40.186Z,-4.58
2024-01-20T22:24:41.985Z,-4.59
2024-01-20T22:27:43.754Z,-4.61
2024-01-20T22:30:45.515Z,-4.66
2024-01-20T22:33:47.274Z,-4.81
2024-01-20T22:36:49.239Z,-4.86
2024-01-20T22:39:51.028Z,-4.84
2024-01-20T22:42:52.853Z,-4.88
2024-01-20T22:45:55.174Z,-4.95
2024-01-20T22:48:57.034Z,-5.00
2024-01-20T22:51:59.218Z,-5.10
2024-01-20T22:55:00.943Z,-5.16
2024-01-20T22:58:02.848Z,-5.24
2024-01-20T23:01:05.541Z,-5.25
2024-01-20T23:04:07.466Z,-5.26
2024-01-20T23:07:09.243Z,-5.33
2024-01-20T23:10:11.294Z,-5.33
2024-01-20T23:13:13.304Z,-5.36
2024-01-20T23:16:15.000Z,-5.45
2024-01-20T23:19:16.831Z,-5.66
2024-01-20T23:22:18.520Z,-5.80
2024-01-20T23:25:20.224Z,-5.79
2024-01-20T23:28:21.893Z,-5.81
2024-01-20T23:31:24.091Z,-5.87
2024-01-20T23:34:25.887Z,-5.89
2024-01-20T23:37:27.606Z,-5.89
2024-01-20T23:40:29.287Z,-5.98
2024-01-20T23:43:31.000Z,-5.92
2024-01-20T23:46:32.652Z,-5.94
2024-01-20T23:49:34.427Z,-5.93
2024-01-20T23:52:36.503Z,-6.01
2024-01-20T23:55:38.234Z,-6.10
2024-01-20T23:58:40.064Z,-6.10
